Mancos, Colorado
Current Conditions -  °F | °C
As of 3:53 PM on Monday 22 Dec 2014 (Local Time) from KCEZ Reporting Station
Clear Clear  
Wind Chill:   Ceiling: Unl
Heat Index:   Visibility: 10mi
Dew Point: -2°   Wind: 20mph
Humidity: 50%   Direction: 310°NW
Pressure: 29.79"   Gusts: 31mph
Location:  37.34°N, 108.29°W
Report Text: KCEZ 222253Z AUTO 31017G27KT 10SM CLR 08/M02 A2979 RMK AO2 PK WND 32043/2233 SLP064 T00781022
Loading
Personal Weather Stations






























Interactive Weather Map New forecast layout! Learn more

10-Day Weather Forecast

Advertisements
Track Severe Weather on mobile